createdAt,value
2024-01-16T11:37:52.361Z,2.30
2024-01-16T11:40:23.403Z,1.60
2024-01-16T11:50:35.771Z,2.30
2024-01-16T11:53:04.144Z,2.70
2024-01-16T11:56:01.407Z,2.30
2024-01-16T11:58:39.173Z,2.30
2024-01-16T12:01:07.479Z,2.80
2024-01-16T12:03:35.943Z,2.40
2024-01-16T12:06:10.862Z,2.00
2024-01-16T12:08:39.008Z,2.50
2024-01-16T12:11:07.004Z,2.20
2024-01-16T12:13:34.774Z,2.80
2024-01-16T12:16:06.308Z,3.20
2024-01-16T12:18:41.385Z,3.30
2024-01-16T12:21:13.183Z,2.90
2024-01-16T12:23:47.067Z,2.90
2024-01-16T12:34:09.584Z,2.80
2024-01-16T12:36:38.967Z,3.40
2024-01-16T12:39:07.045Z,2.40
2024-01-16T12:41:42.317Z,2.80
2024-01-16T12:44:16.215Z,2.70
2024-01-16T12:46:54.966Z,3.40
2024-01-16T12:49:24.490Z,3.30
2024-01-16T12:52:22.480Z,2.70
2024-01-16T12:55:10.241Z,3.10
2024-01-16T12:57:38.575Z,3.20
2024-01-16T13:00:26.946Z,3.20
2024-01-16T13:02:57.125Z,3.00
2024-01-16T13:05:26.950Z,3.40
2024-01-16T13:08:04.702Z,3.80
2024-01-16T13:13:21.100Z,3.50
2024-01-16T13:15:49.068Z,3.20
2024-01-16T13:18:24.263Z,3.10
2024-01-16T13:20:56.182Z,4.20
2024-01-16T13:23:26.385Z,4.00
2024-01-16T13:25:57.050Z,3.70
2024-01-16T13:28:26.693Z,3.60
2024-01-16T13:30:54.658Z,3.80
2024-01-16T13:33:24.617Z,3.90
2024-01-16T13:35:53.506Z,3.60
2024-01-16T13:38:21.434Z,3.60
2024-01-16T13:40:51.529Z,3.30
2024-01-16T13:43:19.948Z,3.40
2024-01-16T13:45:51.005Z,3.30
2024-01-16T13:48:19.401Z,4.60
2024-01-16T13:50:49.044Z,4.50
2024-01-16T13:53:17.337Z,4.60
2024-01-16T13:55:45.957Z,4.30
2024-01-16T13:58:14.067Z,3.90
2024-01-16T14:00:42.047Z,3.40
2024-01-16T14:03:10.159Z,4.70
2024-01-16T14:05:38.297Z,3.90
2024-01-16T14:08:07.017Z,3.60
2024-01-16T14:10:34.739Z,4.20
2024-01-16T14:13:02.462Z,3.80
2024-01-16T14:15:30.504Z,4.00
2024-01-16T14:17:59.687Z,2.90
2024-01-16T14:20:28.896Z,3.60
2024-01-16T14:22:57.679Z,3.90
2024-01-16T14:25:26.265Z,4.10
2024-01-16T14:28:01.813Z,4.00
2024-01-16T14:30:31.020Z,3.90
2024-01-16T14:32:59.080Z,4.00
2024-01-16T14:35:27.050Z,3.50
2024-01-16T14:37:55.238Z,3.20
2024-01-16T14:40:26.882Z,3.50
2024-01-16T14:42:55.793Z,3.60
2024-01-16T14:45:24.850Z,3.80
2024-01-16T14:47:54.945Z,4.30
2024-01-16T14:50:23.634Z,4.80
2024-01-16T14:52:53.070Z,3.70
2024-01-16T14:55:24.172Z,4.20
2024-01-16T14:57:54.596Z,3.80
2024-01-16T15:00:25.592Z,3.70
2024-01-16T15:02:54.734Z,3.70
2024-01-16T15:05:23.446Z,5.20
2024-01-16T15:07:53.426Z,4.20
2024-01-16T15:10:22.052Z,4.70
2024-01-16T15:12:50.180Z,4.40
2024-01-16T15:15:18.117Z,4.10
2024-01-16T15:18:05.920Z,4.20
2024-01-16T15:20:33.693Z,4.90
2024-01-16T15:23:01.545Z,4.70
2024-01-16T15:25:29.476Z,5.90
2024-01-16T15:27:57.954Z,5.10
2024-01-16T15:30:32.852Z,5.70
2024-01-16T15:33:00.930Z,5.50
2024-01-16T15:35:28.827Z,5.90
2024-01-16T15:37:56.689Z,4.90
2024-01-16T15:40:24.775Z,5.60
2024-01-16T15:42:52.730Z,5.60
2024-01-16T15:45:21.319Z,5.40
2024-01-16T15:47:50.179Z,5.00
2024-01-16T15:50:19.010Z,5.70
2024-01-16T15:52:47.717Z,4.80
2024-01-16T15:55:16.086Z,5.10
2024-01-16T15:57:45.450Z,5.10
2024-01-16T16:07:55.272Z,5.50
2024-01-16T16:10:23.551Z,5.10
2024-01-16T16:12:51.740Z,6.00
2024-01-16T16:15:19.801Z,5.00
2024-01-16T16:17:48.089Z,5.50
2024-01-16T16:20:16.105Z,5.60
2024-01-16T16:22:46.650Z,5.30
2024-01-16T16:25:16.012Z,5.50
2024-01-16T16:27:45.503Z,6.10
2024-01-16T16:30:13.889Z,6.10
2024-01-16T16:32:41.787Z,5.30
2024-01-16T16:35:11.087Z,6.00
2024-01-16T16:37:39.019Z,6.00
2024-01-16T16:40:07.781Z,5.20
2024-01-16T16:42:35.584Z,5.40
2024-01-16T16:45:04.654Z,5.50
2024-01-16T16:47:32.587Z,6.30
2024-01-16T16:50:00.866Z,6.10
2024-01-16T16:52:28.745Z,6.40
2024-01-16T16:54:56.950Z,6.70
2024-01-16T16:57:24.764Z,6.40
2024-01-16T16:59:54.193Z,6.10
2024-01-16T17:02:23.601Z,6.50
2024-01-16T17:04:51.769Z,6.60
2024-01-16T17:07:19.733Z,6.50
2024-01-16T17:09:47.853Z,7.00
2024-01-16T17:12:15.720Z,7.80
2024-01-16T17:14:43.629Z,6.40
2024-01-16T17:17:12.572Z,6.80
2024-01-16T17:19:41.976Z,6.50
2024-01-16T17:22:10.261Z,6.40
2024-01-16T17:24:38.336Z,6.20
2024-01-16T17:27:07.067Z,7.00
2024-01-16T17:29:35.122Z,5.50
2024-01-16T17:32:04.642Z,6.80
2024-01-16T17:34:32.519Z,6.30
2024-01-16T17:37:00.542Z,6.20
2024-01-16T17:39:29.175Z,6.30
2024-01-16T17:41:57.137Z,6.00
2024-01-16T17:44:25.042Z,6.70
2024-01-16T17:46:53.042Z,6.40
2024-01-16T17:49:21.253Z,6.50
2024-01-16T17:51:49.838Z,6.20
2024-01-16T17:54:17.797Z,7.00
2024-01-16T17:56:48.619Z,6.30
2024-01-16T17:59:17.408Z,6.90
2024-01-16T18:01:45.245Z,6.80
2024-01-16T18:04:14.560Z,7.60
2024-01-16T18:06:44.394Z,6.90
2024-01-16T18:09:12.609Z,8.60
2024-01-16T18:11:56.937Z,6.20
2024-01-16T18:14:25.612Z,7.20
2024-01-16T18:16:54.875Z,7.10
2024-01-16T18:19:26.068Z,7.00
2024-01-16T18:21:56.784Z,6.50
2024-01-16T18:24:24.782Z,5.80
2024-01-16T18:26:52.736Z,5.40
2024-01-16T18:29:23.371Z,5.60
2024-01-16T18:31:51.519Z,6.10
2024-01-16T18:34:22.200Z,6.70
2024-01-16T18:36:50.628Z,6.40
2024-01-16T18:39:21.167Z,5.90
2024-01-16T18:41:52.990Z,6.10
2024-01-16T18:44:21.730Z,5.80
2024-01-16T18:46:49.643Z,5.50
2024-01-16T18:49:18.052Z,5.70
2024-01-16T18:51:48.489Z,6.00
2024-01-16T18:54:17.239Z,7.30
2024-01-16T18:56:45.194Z,6.60
2024-01-16T18:59:13.107Z,6.90
2024-01-16T19:01:42.687Z,6.40
2024-01-16T19:04:14.135Z,6.20
2024-01-16T19:06:49.010Z,6.10
2024-01-16T19:09:19.073Z,5.60
2024-01-16T19:11:50.553Z,6.20
2024-01-16T19:14:18.508Z,7.80
2024-01-16T19:16:47.608Z,7.80
2024-01-16T19:19:15.742Z,8.10
2024-01-16T19:21:47.171Z,10.10
2024-01-16T19:24:16.965Z,8.90
2024-01-16T19:26:45.207Z,8.40
2024-01-16T19:29:13.974Z,6.50
2024-01-16T19:31:45.558Z,7.30
2024-01-16T19:34:13.829Z,6.60
2024-01-16T19:36:42.178Z,6.60
2024-01-16T19:39:16.124Z,6.20
2024-01-16T19:41:45.253Z,7.30
2024-01-16T19:44:13.330Z,7.50
2024-01-16T19:46:44.393Z,8.60
2024-01-16T19:49:12.352Z,8.20
2024-01-16T19:51:40.711Z,8.60
2024-01-16T19:54:09.337Z,8.20
2024-01-16T19:56:43.381Z,7.80
2024-01-16T19:59:11.895Z,8.40
2024-01-16T20:06:23.045Z,7.80
2024-01-16T20:08:53.185Z,6.80
2024-01-16T20:11:31.125Z,7.00
2024-01-16T20:13:59.745Z,7.10
2024-01-16T20:16:29.351Z,8.30
2024-01-16T20:18:57.743Z,8.60
2024-01-16T20:21:27.069Z,7.60
2024-01-16T20:23:55.392Z,7.60
2024-01-16T20:26:23.409Z,7.20
2024-01-16T20:28:51.252Z,6.40
2024-01-16T20:31:19.124Z,7.50
2024-01-16T20:33:52.919Z,6.90
2024-01-16T20:36:21.198Z,6.40
2024-01-16T20:38:50.252Z,6.50
2024-01-16T20:41:18.205Z,5.70
2024-01-16T20:43:46.202Z,5.50
2024-01-16T20:46:15.698Z,5.10
2024-01-16T20:48:43.750Z,6.80
2024-01-16T20:51:14.912Z,5.60
2024-01-16T20:53:42.820Z,5.30
2024-01-16T20:56:10.852Z,6.30
2024-01-16T20:58:39.781Z,6.70
2024-01-16T21:01:08.755Z,6.10
2024-01-16T21:03:36.876Z,6.00
2024-01-16T21:06:07.441Z,6.10
2024-01-16T21:08:37.259Z,6.70
2024-01-16T21:11:05.054Z,7.20
2024-01-16T21:13:32.775Z,6.90
2024-01-16T21:16:02.938Z,6.90
2024-01-16T21:18:33.108Z,6.90
2024-01-16T23:56:12.516Z,6.40
